Terminal Aerodrome Forecast
Issued by NWS

Home | Current Version | Previous Version | Text Only | Print | Product List | Glossary On
Versions: 1 2 3 4 5 6 7 8 9 10 11 12 13 14 15 16 17 18 19 20 21 22 23 24 25
537
FTUS43 KAPX 241120
TAFPLN
TAF
KPLN 241120Z 2412/2512 04008KT 3SM -SN SCT008 OVC015
      TEMPO 2412/2416 1SM -SN BR BKN008
     FM242000 05013G22KT 2SM -FZRASN BR VCTS OVC008CB
     FM250000 04012G21KT 3SM -FZRASN BR OVC003
     FM250800 31011G20KT 2SM -SN BR OVC008=

USA.gov is the U.S. government's official web portal to all federal, state and local government web resources and services.